Time;durP1;ratioP1;P1;durP2;ratioP2;P2;SDS_P1;SDS_P2;PMS_P1;PMS_P2;Temp;Humidity;BMP_temperature;BMP_pressure;BME280_temperature;BME280_humidity;BME280_pressure;Samples;Min_cycle;Max_cycle;Signal;HPM_P1;HPM_P2
2023/09/23 00:02:11;;;;;;;2.10;1.23;;;;;;;;;;5001874;28;20061;-73
2023/09/23 00:04:56;;;;;;;2.83;1.40;;;;;;;;;;4990599;28;20036;-71
2023/09/23 00:07:42;;;;;;;2.92;1.10;;;;;;;;;;5008686;28;20037;-69
2023/09/23 00:10:29;;;;;;;2.00;1.13;;;;;;;;;;5008129;28;20469;-69
2023/09/23 00:13:15;;;;;;;3.22;1.13;;;;;;;;;;5008289;28;20080;-70
2023/09/23 00:16:03;;;;;;;4.70;1.52;;;;;;;;;;5006395;28;20045;-69
2023/09/23 00:18:48;;;;;;;2.50;1.15;;;;;;;;;;5008134;28;20038;-74
2023/09/23 00:21:33;;;;;;;3.53;1.30;;;;;;;;;;5008453;28;20059;-74
2023/09/23 00:24:19;;;;;;;2.28;1.35;;;;;;;;;;5007650;28;20033;-73
2023/09/23 00:27:04;;;;;;;3.65;1.88;;;;;;;;;;5008148;28;20046;-72
2023/09/23 00:29:49;;;;;;;3.13;1.52;;;;;;;;;;5007995;28;20038;-72
2023/09/23 00:32:34;;;;;;;7.07;1.98;;;;;;;;;;4993953;28;20477;-74
2023/09/23 00:35:20;;;;;;;1.20;0.98;;;;;;;;;;5007258;28;20037;-72
2023/09/23 00:38:06;;;;;;;1.55;0.88;;;;;;;;;;5008052;28;20077;-68
2023/09/23 00:40:51;;;;;;;3.80;0.90;;;;;;;;;;5007971;28;20608;-71
2023/09/23 00:43:37;;;;;;;2.05;1.40;;;;;;;;;;5008347;28;20080;-71
2023/09/23 00:46:23;;;;;;;2.92;1.10;;;;;;;;;;5011025;28;20026;-71
2023/09/23 00:49:08;;;;;;;2.35;1.38;;;;;;;;;;5011833;28;20187;-70
2023/09/23 00:51:54;;;;;;;2.95;0.88;;;;;;;;;;5011427;28;20040;-71
2023/09/23 00:54:49;;;;;;;2.03;0.90;;;;;;;;;;5019440;28;20747;-69
2023/09/23 00:57:35;;;;;;;4.90;1.65;;;;;;;;;;5011856;28;20030;-70
2023/09/23 01:00:30;;;;;;;1.60;1.00;;;;;;;;;;5011482;28;20409;-70
2023/09/23 01:03:16;;;;;;;1.85;1.00;;;;;;;;;;5011598;28;20054;-73
2023/09/23 01:06:03;;;;;;;1.98;1.02;;;;;;;;;;5001234;28;20092;-70
2023/09/23 01:08:50;;;;;;;2.28;1.35;;;;;;;;;;5007192;28;20044;-70
2023/09/23 01:11:36;;;;;;;1.70;1.10;;;;;;;;;;5011290;28;20038;-70
2023/09/23 01:14:22;;;;;;;2.85;1.63;;;;;;;;;;5011256;28;20053;-70
2023/09/23 01:17:10;;;;;;;2.47;1.40;;;;;;;;;;5011078;28;20026;-71
2023/09/23 01:19:55;;;;;;;1.63;1.08;;;;;;;;;;5010794;28;20030;-70
2023/09/23 01:22:40;;;;;;;2.55;1.20;;;;;;;;;;4999341;28;20107;-70
2023/09/23 01:25:25;;;;;;;3.03;1.23;;;;;;;;;;5010641;28;20042;-70
2023/09/23 01:28:13;;;;;;;3.20;1.30;;;;;;;;;;5010914;28;20085;-70
2023/09/23 01:31:02;;;;;;;4.57;1.10;;;;;;;;;;5011167;28;20029;-70
2023/09/23 01:33:48;;;;;;;2.65;0.70;;;;;;;;;;5010627;28;20037;-71
2023/09/23 01:36:37;;;;;;;3.00;1.30;;;;;;;;;;5010973;28;20400;-70
2023/09/23 01:39:23;;;;;;;1.48;1.00;;;;;;;;;;5010985;28;20064;-69
2023/09/23 01:42:08;;;;;;;2.28;1.10;;;;;;;;;;4997207;28;20077;-69
2023/09/23 01:44:54;;;;;;;2.72;0.90;;;;;;;;;;4999322;28;20568;-70
2023/09/23 01:47:43;;;;;;;2.47;1.23;;;;;;;;;;5023059;28;20040;-69
2023/09/23 01:50:29;;;;;;;2.78;0.90;;;;;;;;;;5010392;28;20373;-68
2023/09/23 01:53:21;;;;;;;2.25;0.88;;;;;;;;;;5012351;28;20045;-70
2023/09/23 01:56:09;;;;;;;2.03;0.90;;;;;;;;;;5017626;28;20034;-72
2023/09/23 01:58:54;;;;;;;1.80;1.10;;;;;;;;;;5010997;28;20113;-70
2023/09/23 02:01:40;;;;;;;1.35;1.25;;;;;;;;;;5010412;28;20042;-70
2023/09/23 02:04:25;;;;;;;2.92;1.00;;;;;;;;;;5010230;28;20030;-71
2023/09/23 02:07:11;;;;;;;1.98;0.80;;;;;;;;;;5010204;28;20072;-71
2023/09/23 02:09:56;;;;;;;0.75;0.75;;;;;;;;;;5010295;28;20076;-68
2023/09/23 02:12:42;;;;;;;1.15;0.90;;;;;;;;;;4997178;28;20058;-77
2023/09/23 02:15:27;;;;;;;5.68;1.63;;;;;;;;;;5010027;28;20033;-77
2023/09/23 02:18:14;;;;;;;1.70;0.88;;;;;;;;;;5008615;28;20425;-77
2023/09/23 02:20:59;;;;;;;2.97;1.05;;;;;;;;;;5012575;28;20038;-79
2023/09/23 02:23:45;;;;;;;3.95;1.23;;;;;;;;;;5011830;28;20061;-78
2023/09/23 02:26:30;;;;;;;2.08;1.00;;;;;;;;;;5010737;28;20036;-77
2023/09/23 02:29:16;;;;;;;0.85;0.73;;;;;;;;;;5010596;28;20112;-67
2023/09/23 02:32:02;;;;;;;3.05;0.95;;;;;;;;;;5009536;28;20053;-74
2023/09/23 02:34:47;;;;;;;0.70;0.70;;;;;;;;;;5009027;28;20116;-73
2023/09/23 02:37:32;;;;;;;1.50;1.10;;;;;;;;;;4995198;28;20477;-74
2023/09/23 02:40:17;;;;;;;3.42;0.77;;;;;;;;;;5003087;28;20109;-72
2023/09/23 02:43:04;;;;;;;0.82;0.80;;;;;;;;;;5009383;28;20034;-75
2023/09/23 02:45:50;;;;;;;1.17;0.82;;;;;;;;;;5009794;28;20041;-72
2023/09/23 02:48:35;;;;;;;2.33;0.80;;;;;;;;;;5011092;28;20109;-69
2023/09/23 02:51:20;;;;;;;3.25;1.20;;;;;;;;;;5009551;28;20028;-68
2023/09/23 02:54:06;;;;;;;3.45;0.95;;;;;;;;;;4997228;28;20034;-70
2023/09/23 02:56:51;;;;;;;2.03;0.80;;;;;;;;;;5009237;28;20423;-69
2023/09/23 02:59:41;;;;;;;1.48;0.88;;;;;;;;;;5008976;28;20536;-70
2023/09/23 03:02:30;;;;;;;2.72;0.80;;;;;;;;;;5009250;28;20041;-69
2023/09/23 03:05:16;;;;;;;4.53;1.13;;;;;;;;;;5008862;28;20385;-71
2023/09/23 03:08:02;;;;;;;3.42;1.30;;;;;;;;;;4995292;28;20033;-70
2023/09/23 03:10:47;;;;;;;1.13;0.95;;;;;;;;;;4995283;28;20030;-72
2023/09/23 03:13:34;;;;;;;5.70;1.10;;;;;;;;;;5008906;28;20462;-71
2023/09/23 03:16:28;;;;;;;2.17;0.90;;;;;;;;;;5009199;28;20041;-70
2023/09/23 03:19:15;;;;;;;4.57;1.20;;;;;;;;;;5008550;28;20108;-70
2023/09/23 03:22:00;;;;;;;0.93;0.82;;;;;;;;;;5009056;28;20034;-69
2023/09/23 03:24:48;;;;;;;0.60;0.60;;;;;;;;;;5008924;28;20076;-68
2023/09/23 03:27:33;;;;;;;3.13;0.90;;;;;;;;;;5008908;28;20038;-70
2023/09/23 03:30:19;;;;;;;1.00;0.80;;;;;;;;;;4995194;28;20034;-71
2023/09/23 03:33:04;;;;;;;5.90;1.08;;;;;;;;;;4995379;28;20037;-69
2023/09/23 03:35:49;;;;;;;1.10;0.75;;;;;;;;;;5008793;28;20069;-69
2023/09/23 03:38:35;;;;;;;1.23;0.80;;;;;;;;;;5008505;28;20493;-69
2023/09/23 03:41:21;;;;;;;1.98;1.00;;;;;;;;;;5008710;28;20483;-75
2023/09/23 03:44:07;;;;;;;1.25;0.95;;;;;;;;;;5008241;28;20488;-77
2023/09/23 03:46:52;;;;;;;5.65;0.95;;;;;;;;;;4986905;28;20083;-73
2023/09/23 03:49:37;;;;;;;3.53;0.93;;;;;;;;;;5008248;28;20042;-72
2023/09/23 03:52:24;;;;;;;3.50;1.42;;;;;;;;;;5008693;28;20025;-72
2023/09/23 03:55:11;;;;;;;2.20;1.00;;;;;;;;;;5010192;28;20121;-72
2023/09/23 03:57:57;;;;;;;2.30;0.90;;;;;;;;;;5008089;28;20030;-72
2023/09/23 04:00:43;;;;;;;3.28;1.05;;;;;;;;;;5008171;28;20038;-71
2023/09/23 04:03:28;;;;;;;3.10;1.23;;;;;;;;;;5008590;28;20114;-70
2023/09/23 04:06:14;;;;;;;3.55;0.95;;;;;;;;;;5008030;28;20508;-69
2023/09/23 04:08:59;;;;;;;2.35;1.10;;;;;;;;;;5008468;28;20045;-69
2023/09/23 04:11:46;;;;;;;7.32;1.38;;;;;;;;;;5008593;28;20041;-69
2023/09/23 04:14:31;;;;;;;1.77;0.82;;;;;;;;;;5008217;28;20117;-71
2023/09/23 04:17:16;;;;;;;0.93;0.80;;;;;;;;;;5007964;28;20487;-70
2023/09/23 04:20:04;;;;;;;4.55;1.75;;;;;;;;;;5008064;28;20073;-71
2023/09/23 04:22:49;;;;;;;2.72;1.17;;;;;;;;;;5012047;28;20534;-77
2023/09/23 04:25:34;;;;;;;5.00;1.48;;;;;;;;;;5013430;28;20030;-77
2023/09/23 04:28:20;;;;;;;2.22;1.00;;;;;;;;;;5013398;28;20074;-76
2023/09/23 04:31:06;;;;;;;3.95;1.17;;;;;;;;;;5013568;28;20044;-78
2023/09/23 04:33:52;;;;;;;3.60;0.98;;;;;;;;;;5013382;28;20042;-77
2023/09/23 04:36:37;;;;;;;1.85;0.90;;;;;;;;;;5014170;28;20044;-69
2023/09/23 04:39:22;;;;;;;3.78;0.90;;;;;;;;;;4998574;28;20038;-77
2023/09/23 04:42:08;;;;;;;2.42;1.17;;;;;;;;;;4999808;28;20433;-78
2023/09/23 04:44:54;;;;;;;2.95;0.82;;;;;;;;;;4995624;28;20034;-77
2023/09/23 04:47:45;;;;;;;5.47;1.23;;;;;;;;;;5011933;28;20038;-78
2023/09/23 04:50:30;;;;;;;1.73;1.15;;;;;;;;;;5000286;28;20069;-78
2023/09/23 04:53:16;;;;;;;1.10;0.80;;;;;;;;;;5013250;28;20036;-78
2023/09/23 04:56:07;;;;;;;2.05;1.20;;;;;;;;;;5004551;28;20038;-74
2023/09/23 04:58:58;;;;;;;1.52;1.10;;;;;;;;;;5011738;28;20133;-70
2023/09/23 05:01:43;;;;;;;2.25;1.00;;;;;;;;;;5011542;28;20120;-70
2023/09/23 05:04:28;;;;;;;1.88;0.80;;;;;;;;;;5011231;28;20040;-70
2023/09/23 05:07:14;;;;;;;3.55;1.45;;;;;;;;;;4997628;28;20396;-70
2023/09/23 05:09:59;;;;;;;3.38;1.05;;;;;;;;;;5011138;28;20051;-70
2023/09/23 05:12:44;;;;;;;5.43;1.52;;;;;;;;;;5011395;28;20030;-70
2023/09/23 05:15:29;;;;;;;1.40;1.10;;;;;;;;;;5011515;28;20300;-72
2023/09/23 05:18:15;;;;;;;2.97;1.38;;;;;;;;;;5010933;28;20049;-69
2023/09/23 05:21:00;;;;;;;1.73;1.23;;;;;;;;;;5010864;28;20524;-69
2023/09/23 05:23:48;;;;;;;5.13;1.15;;;;;;;;;;5011135;28;20078;-70
2023/09/23 05:26:34;;;;;;;3.63;1.00;;;;;;;;;;5010668;28;20025;-69
2023/09/23 05:29:20;;;;;;;1.88;1.20;;;;;;;;;;5011046;28;20030;-69
2023/09/23 05:32:05;;;;;;;3.58;1.00;;;;;;;;;;5010590;28;20036;-71
2023/09/23 05:34:54;;;;;;;2.42;1.10;;;;;;;;;;5010255;28;20029;-69
2023/09/23 05:37:40;;;;;;;1.77;0.90;;;;;;;;;;5010948;28;20225;-67
2023/09/23 05:40:29;;;;;;;1.95;1.20;;;;;;;;;;5010961;28;20299;-69
2023/09/23 05:43:14;;;;;;;5.30;1.00;;;;;;;;;;5010752;28;20037;-69
2023/09/23 05:46:05;;;;;;;1.15;0.77;;;;;;;;;;5012586;28;20531;-67
2023/09/23 05:48:51;;;;;;;1.83;1.10;;;;;;;;;;5010634;28;20048;-68
2023/09/23 05:51:36;;;;;;;3.20;1.17;;;;;;;;;;5010513;28;20032;-71
2023/09/23 05:54:22;;;;;;;3.72;1.25;;;;;;;;;;5012882;28;20417;-68
2023/09/23 05:57:08;;;;;;;3.22;1.10;;;;;;;;;;4997819;28;20030;-70
2023/09/23 05:59:53;;;;;;;3.63;1.50;;;;;;;;;;5010342;28;20057;-69
2023/09/23 06:02:38;;;;;;;2.85;1.30;;;;;;;;;;5010641;28;20069;-70
2023/09/23 06:05:24;;;;;;;5.55;1.20;;;;;;;;;;5010141;28;20363;-69
2023/09/23 06:08:10;;;;;;;3.08;1.42;;;;;;;;;;4996480;28;20473;-69
2023/09/23 06:10:59;;;;;;;3.28;1.20;;;;;;;;;;5010645;28;20026;-78
2023/09/23 06:13:45;;;;;;;;;;;;;;;;;;5025803;28;20342;-78
2023/09/23 06:16:30;;;;;;;1.27;0.85;;;;;;;;;;4998349;28;19920;-78
2023/09/23 06:19:15;;;;;;;3.30;1.20;;;;;;;;;;5014123;28;20461;-78
2023/09/23 06:22:00;;;;;;;2.53;1.23;;;;;;;;;;5011921;28;20121;-78
2023/09/23 06:24:48;;;;;;;4.38;1.42;;;;;;;;;;5011869;28;20037;-78
2023/09/23 06:27:33;;;;;;;5.55;2.05;;;;;;;;;;5011420;28;20116;-70
2023/09/23 06:30:18;;;;;;;4.78;1.20;;;;;;;;;;5010437;28;20069;-78
2023/09/23 06:33:04;;;;;;;8.60;1.48;;;;;;;;;;5010100;28;20076;-77
2023/09/23 06:35:49;;;;;;;3.90;1.40;;;;;;;;;;5010943;28;20034;-78
2023/09/23 06:38:34;;;;;;;0.93;0.82;;;;;;;;;;5013402;28;20038;-77
2023/09/23 06:41:20;;;;;;;4.22;1.13;;;;;;;;;;4997681;28;20068;-78
2023/09/23 06:44:07;;;;;;;2.47;1.17;;;;;;;;;;5009528;28;20038;-78
2023/09/23 06:46:52;;;;;;;3.92;1.10;;;;;;;;;;5012378;28;20038;-71
2023/09/23 06:49:38;;;;;;;1.63;1.02;;;;;;;;;;5006945;28;20465;-79
2023/09/23 06:52:23;;;;;;;2.65;1.23;;;;;;;;;;4996968;28;20034;-78
2023/09/23 06:55:08;;;;;;;1.63;1.30;;;;;;;;;;5022779;28;20088;-78
2023/09/23 06:57:53;;;;;;;2.45;1.40;;;;;;;;;;5011253;28;20444;-80
2023/09/23 07:00:38;;;;;;;3.47;1.20;;;;;;;;;;4986174;28;20030;-80
2023/09/23 07:03:24;;;;;;;2.13;1.30;;;;;;;;;;5010650;28;20359;-79
2023/09/23 07:06:09;;;;;;;1.50;1.13;;;;;;;;;;5008598;28;20041;-75
2023/09/23 07:08:54;;;;;;;1.83;1.00;;;;;;;;;;4994563;28;20038;-69
2023/09/23 07:11:40;;;;;;;1.55;1.05;;;;;;;;;;5008644;28;20034;-68
2023/09/23 07:14:25;;;;;;;1.42;1.20;;;;;;;;;;5008862;28;20038;-67
2023/09/23 07:17:10;;;;;;;1.95;1.00;;;;;;;;;;5009520;28;20025;-69
2023/09/23 07:19:55;;;;;;;3.38;1.10;;;;;;;;;;5009222;28;20046;-68
2023/09/23 07:22:40;;;;;;;4.75;1.20;;;;;;;;;;5008864;28;20033;-73
2023/09/23 07:25:26;;;;;;;2.85;1.17;;;;;;;;;;5002553;28;20030;-78
2023/09/23 07:28:12;;;;;;;1.95;1.17;;;;;;;;;;4983198;28;20026;-77
2023/09/23 07:30:57;;;;;;;3.20;1.00;;;;;;;;;;5008779;28;20042;-78
2023/09/23 07:33:42;;;;;;;3.47;1.20;;;;;;;;;;5006384;28;20045;-77
2023/09/23 07:36:28;;;;;;;1.30;0.85;;;;;;;;;;5006395;28;20026;-77
2023/09/23 07:39:13;;;;;;;2.20;1.10;;;;;;;;;;5005812;28;20553;-79
2023/09/23 07:41:59;;;;;;;1.35;0.90;;;;;;;;;;4992682;28;20041;-78
2023/09/23 07:44:44;;;;;;;1.30;0.90;;;;;;;;;;4994748;28;20037;-74
2023/09/23 07:47:30;;;;;;;1.63;1.30;;;;;;;;;;5010678;28;20029;-72
2023/09/23 07:50:15;;;;;;;1.33;0.90;;;;;;;;;;5008280;28;20092;-73
2023/09/23 07:53:00;;;;;;;3.33;1.05;;;;;;;;;;5008245;28;20116;-74
2023/09/23 07:55:45;;;;;;;2.47;1.10;;;;;;;;;;4997583;28;20493;-73
2023/09/23 07:58:31;;;;;;;1.02;0.90;;;;;;;;;;5007995;28;20237;-70
2023/09/23 08:01:17;;;;;;;2.75;1.08;;;;;;;;;;5008541;28;20026;-75
2023/09/23 08:04:02;;;;;;;2.97;1.30;;;;;;;;;;5008776;28;20034;-75
2023/09/23 08:06:47;;;;;;;3.05;1.05;;;;;;;;;;5007822;28;20030;-74
2023/09/23 08:09:32;;;;;;;5.00;1.30;;;;;;;;;;5008007;28;20038;-74
2023/09/23 08:12:18;;;;;;;1.42;1.00;;;;;;;;;;5008090;28;20132;-72
2023/09/23 08:15:05;;;;;;;1.00;0.90;;;;;;;;;;5007520;28;20045;-75
2023/09/23 08:17:50;;;;;;;4.43;1.00;;;;;;;;;;5011959;28;20054;-74
2023/09/23 08:20:35;;;;;;;1.67;1.13;;;;;;;;;;4992483;28;20107;-75
2023/09/23 08:23:21;;;;;;;3.53;1.00;;;;;;;;;;5007760;28;20033;-75
2023/09/23 08:26:06;;;;;;;3.22;1.05;;;;;;;;;;5004979;28;20084;-74
2023/09/23 08:28:51;;;;;;;2.63;1.10;;;;;;;;;;4994280;28;20109;-74
2023/09/23 08:31:36;;;;;;;2.33;1.20;;;;;;;;;;5007817;28;20546;-74
2023/09/23 08:34:24;;;;;;;1.17;0.90;;;;;;;;;;5008003;28;20050;-74
2023/09/23 08:37:09;;;;;;;1.92;1.10;;;;;;;;;;5007907;28;20034;-79
2023/09/23 08:39:55;;;;;;;1.45;1.13;;;;;;;;;;5007817;28;20038;-79
2023/09/23 08:42:40;;;;;;;2.65;0.93;;;;;;;;;;5007788;28;20394;-78
2023/09/23 08:45:27;;;;;;;2.40;1.10;;;;;;;;;;5007136;28;20036;-78
2023/09/23 08:48:13;;;;;;;1.63;1.08;;;;;;;;;;4991057;28;20273;-76
2023/09/23 08:50:59;;;;;;;0.95;0.88;;;;;;;;;;5006859;28;20512;-80
2023/09/23 08:53:45;;;;;;;1.83;1.33;;;;;;;;;;5007875;28;20022;-76
2023/09/23 08:56:32;;;;;;;3.20;1.15;;;;;;;;;;4993099;28;20034;-68
2023/09/23 08:59:18;;;;;;;3.33;1.20;;;;;;;;;;4993599;28;20067;-71
2023/09/23 09:02:03;;;;;;;2.83;1.23;;;;;;;;;;5006522;28;20117;-72
2023/09/23 09:04:54;;;;;;;3.70;1.45;;;;;;;;;;5006605;28;20085;-74
2023/09/23 09:07:39;;;;;;;2.95;1.25;;;;;;;;;;5007781;28;20048;-74
2023/09/23 09:10:25;;;;;;;1.25;0.93;;;;;;;;;;5009950;28;20022;-75
2023/09/23 09:13:10;;;;;;;2.58;1.20;;;;;;;;;;5010364;28;20034;-69
2023/09/23 09:15:56;;;;;;;2.53;1.10;;;;;;;;;;5011028;28;20100;-74
2023/09/23 09:18:41;;;;;;;4.05;1.33;;;;;;;;;;5010614;28;20026;-75
2023/09/23 09:21:27;;;;;;;1.92;1.02;;;;;;;;;;5010196;28;20053;-75
2023/09/23 09:24:12;;;;;;;2.33;1.08;;;;;;;;;;5010872;28;20041;-74
2023/09/23 09:26:57;;;;;;;11.60;1.45;;;;;;;;;;5011149;28;20030;-73
2023/09/23 09:29:43;;;;;;;2.78;1.27;;;;;;;;;;4995857;28;20497;-73
2023/09/23 09:32:32;;;;;;;2.38;0.70;;;;;;;;;;5009825;28;20076;-74
2023/09/23 09:35:17;;;;;;;;;;;;;;;;;;5010408;28;20045;-78
2023/09/23 09:38:05;;;;;;;1.77;1.20;;;;;;;;;;5009917;28;19909;-78
2023/09/23 09:40:55;;;;;;;2.45;1.35;;;;;;;;;;5010958;28;20194;-78
2023/09/23 09:43:40;;;;;;;3.92;1.13;;;;;;;;;;4998705;28;20109;-78
2023/09/23 09:46:28;;;;;;;2.85;1.00;;;;;;;;;;5012536;28;20022;-79
2023/09/23 09:49:16;;;;;;;4.13;1.30;;;;;;;;;;5010616;28;20120;-78
2023/09/23 09:52:03;;;;;;;2.90;1.07;;;;;;;;;;5009923;28;20069;-80
2023/09/23 09:54:52;;;;;;;1.95;1.05;;;;;;;;;;5021988;28;20042;-68
2023/09/23 09:57:37;;;;;;;1.98;1.10;;;;;;;;;;4987907;28;20332;-69
2023/09/23 10:00:33;;;;;;;2.58;1.10;;;;;;;;;;5009534;28;20029;-66
2023/09/23 10:03:23;;;;;;;3.20;1.30;;;;;;;;;;5009824;28;20393;-66
2023/09/23 10:06:08;;;;;;;1.73;1.30;;;;;;;;;;5008526;28;20030;-67
2023/09/23 10:08:53;;;;;;;3.42;1.05;;;;;;;;;;5009890;28;20465;-79
2023/09/23 10:11:39;;;;;;;2.60;1.45;;;;;;;;;;5010339;28;20069;-71
2023/09/23 10:14:24;;;;;;;5.47;1.45;;;;;;;;;;5009368;28;20506;-70
2023/09/23 10:17:12;;;;;;;3.65;1.10;;;;;;;;;;5009058;28;20026;-70
2023/09/23 10:19:58;;;;;;;4.40;1.60;;;;;;;;;;5009635;28;20380;-71
2023/09/23 10:22:51;;;;;;;3.17;1.30;;;;;;;;;;5009614;28;20029;-71
2023/09/23 10:25:41;;;;;;;3.70;1.23;;;;;;;;;;5009467;28;20034;-71
2023/09/23 10:28:30;;;;;;;3.40;1.08;;;;;;;;;;4998928;28;20030;-76
2023/09/23 10:31:15;;;;;;;3.40;1.20;;;;;;;;;;5008767;28;20076;-67
2023/09/23 10:34:04;;;;;;;2.17;1.00;;;;;;;;;;4995228;28;20117;-67
2023/09/23 10:36:50;;;;;;;;;;;;;;;;;;5009273;28;20052;-66
2023/09/23 10:39:42;;;;;;;3.95;1.30;;;;;;;;;;5008579;28;20479;-69
2023/09/23 10:42:27;;;;;;;6.70;1.80;;;;;;;;;;5001198;28;20037;-67
2023/09/23 10:45:13;;;;;;;2.72;1.33;;;;;;;;;;5009554;28;20033;-68
2023/09/23 10:47:58;;;;;;;2.55;1.30;;;;;;;;;;5012014;28;20026;-77
2023/09/23 10:50:44;;;;;;;3.85;1.05;;;;;;;;;;4999421;28;20282;-75
2023/09/23 10:53:30;;;;;;;2.45;1.10;;;;;;;;;;5012530;28;20028;-77
2023/09/23 10:56:15;;;;;;;2.92;1.35;;;;;;;;;;5015007;28;20050;-77
2023/09/23 10:59:01;;;;;;;2.83;1.33;;;;;;;;;;4998396;28;20032;-76
2023/09/23 11:01:46;;;;;;;2.17;1.30;;;;;;;;;;5009318;28;20038;-76
2023/09/23 11:04:33;;;;;;;3.08;1.10;;;;;;;;;;5008488;28;20033;-66
2023/09/23 11:07:20;;;;;;;3.58;1.05;;;;;;;;;;4995664;28;20132;-71
2023/09/23 11:10:05;;;;;;;2.13;1.25;;;;;;;;;;5008376;28;20042;-71
2023/09/23 11:12:53;;;;;;;2.55;1.40;;;;;;;;;;4999201;28;20046;-71
2023/09/23 11:15:39;;;;;;;3.58;1.30;;;;;;;;;;5008162;28;20095;-71
2023/09/23 11:18:25;;;;;;;1.83;1.10;;;;;;;;;;5008259;28;20142;-72
2023/09/23 11:21:11;;;;;;;7.00;1.27;;;;;;;;;;4995109;28;20026;-72
2023/09/23 11:23:57;;;;;;;2.40;0.98;;;;;;;;;;5009140;28;20041;-69
2023/09/23 11:26:43;;;;;;;4.85;1.38;;;;;;;;;;4997487;28;20061;-68
2023/09/23 11:29:29;;;;;;;2.25;0.98;;;;;;;;;;5008424;28;20112;-70
2023/09/23 11:32:18;;;;;;;3.83;1.40;;;;;;;;;;5008449;28;20360;-69
2023/09/23 11:35:04;;;;;;;2.40;1.20;;;;;;;;;;5008622;28;20026;-71
2023/09/23 11:37:50;;;;;;;4.72;1.27;;;;;;;;;;5008869;28;20248;-69
2023/09/23 11:40:35;;;;;;;3.58;1.45;;;;;;;;;;5008485;28;20042;-75
2023/09/23 11:43:20;;;;;;;2.60;1.30;;;;;;;;;;5008401;28;20389;-68
2023/09/23 11:46:05;;;;;;;3.70;1.40;;;;;;;;;;5011101;28;20068;-68
2023/09/23 11:48:51;;;;;;;3.67;1.30;;;;;;;;;;5008776;28;20121;-68
2023/09/23 11:51:36;;;;;;;3.53;1.40;;;;;;;;;;5008231;28;20030;-67
2023/09/23 11:54:22;;;;;;;1.38;1.08;;;;;;;;;;5018796;28;20045;-67
2023/09/23 11:57:08;;;;;;;4.80;1.33;;;;;;;;;;5005630;28;20029;-68
2023/09/23 11:59:53;;;;;;;4.03;1.50;;;;;;;;;;5007839;28;20033;-76
2023/09/23 12:02:42;;;;;;;4.65;1.10;;;;;;;;;;5008124;28;20034;-69
2023/09/23 12:05:30;;;;;;;2.72;1.20;;;;;;;;;;5008120;28;20063;-70
2023/09/23 12:08:15;;;;;;;4.32;1.40;;;;;;;;;;5008090;28;20370;-71
2023/09/23 12:11:01;;;;;;;3.17;2.40;;;;;;;;;;5008004;28;20034;-69
2023/09/23 12:13:46;;;;;;;2.38;1.17;;;;;;;;;;5008235;28;20468;-70
2023/09/23 12:16:32;;;;;;;2.17;1.20;;;;;;;;;;4994660;28;20048;-71
2023/09/23 12:19:17;;;;;;;4.10;1.60;;;;;;;;;;5008241;28;20038;-67
2023/09/23 12:22:02;;;;;;;1.95;1.00;;;;;;;;;;5008310;28;20408;-78
2023/09/23 12:24:49;;;;;;;3.97;1.10;;;;;;;;;;5008141;28;20080;-77
2023/09/23 12:27:34;;;;;;;3.13;1.13;;;;;;;;;;5008059;28;20062;-78
2023/09/23 12:30:19;;;;;;;2.70;1.10;;;;;;;;;;5008095;28;20096;-76
2023/09/23 12:33:05;;;;;;;3.22;1.27;;;;;;;;;;5008237;28;20064;-77
2023/09/23 12:35:51;;;;;;;2.80;1.20;;;;;;;;;;5007907;28;20121;-69
2023/09/23 12:38:36;;;;;;;2.75;1.55;;;;;;;;;;4996847;28;20108;-74
2023/09/23 12:41:21;;;;;;;2.75;1.38;;;;;;;;;;5008111;28;20034;-72
2023/09/23 12:44:06;;;;;;;2.50;1.30;;;;;;;;;;5011767;28;20042;-73
2023/09/23 12:46:52;;;;;;;3.40;1.65;;;;;;;;;;5014293;28;20110;-73
2023/09/23 12:49:37;;;;;;;4.78;1.00;;;;;;;;;;5011616;28;20509;-72
2023/09/23 12:52:22;;;;;;;2.65;1.13;;;;;;;;;;5011900;28;20355;-71
2023/09/23 12:55:08;;;;;;;2.03;1.48;;;;;;;;;;5010292;28;20041;-71
2023/09/23 12:57:53;;;;;;;1.92;0.93;;;;;;;;;;5011498;28;20051;-67
2023/09/23 13:00:41;;;;;;;2.65;1.30;;;;;;;;;;5011819;28;20038;-69
2023/09/23 13:03:27;;;;;;;2.85;1.50;;;;;;;;;;5011377;28;20477;-67
2023/09/23 13:06:12;;;;;;;1.70;1.17;;;;;;;;;;5011297;28;20064;-68
2023/09/23 13:08:57;;;;;;;2.60;1.10;;;;;;;;;;4998013;28;20060;-67
2023/09/23 13:11:43;;;;;;;2.90;1.25;;;;;;;;;;5011180;28;20036;-69
2023/09/23 13:14:29;;;;;;;1.90;1.10;;;;;;;;;;5010752;28;20038;-70
2023/09/23 13:17:14;;;;;;;2.08;1.30;;;;;;;;;;5011174;28;20025;-67
2023/09/23 13:20:00;;;;;;;2.40;1.20;;;;;;;;;;5010816;28;20472;-67
2023/09/23 13:22:45;;;;;;;4.07;1.40;;;;;;;;;;5010677;28;20029;-67
2023/09/23 13:25:30;;;;;;;4.88;1.42;;;;;;;;;;5010292;28;20559;-66
2023/09/23 13:28:16;;;;;;;2.00;1.27;;;;;;;;;;5011234;28;20034;-67
2023/09/23 13:31:01;;;;;;;1.27;1.00;;;;;;;;;;5010771;28;20034;-67
2023/09/23 13:33:48;;;;;;;2.03;1.33;;;;;;;;;;5010564;28;20036;-70
2023/09/23 13:36:33;;;;;;;4.15;1.60;;;;;;;;;;5010240;28;20541;-70
2023/09/23 13:39:18;;;;;;;3.85;1.25;;;;;;;;;;4997098;28;20068;-69
2023/09/23 13:42:05;;;;;;;2.78;1.10;;;;;;;;;;5010802;28;20044;-69
2023/09/23 13:44:50;;;;;;;1.73;1.00;;;;;;;;;;5010598;28;20083;-68
2023/09/23 13:47:37;;;;;;;1.08;0.98;;;;;;;;;;5012897;28;20469;-69
2023/09/23 13:50:22;;;;;;;3.97;1.10;;;;;;;;;;5010436;28;20124;-71
2023/09/23 13:53:07;;;;;;;1.40;1.05;;;;;;;;;;5010693;28;20076;-69
2023/09/23 13:55:52;;;;;;;1.20;1.00;;;;;;;;;;5011065;28;20456;-69
2023/09/23 13:58:38;;;;;;;1.73;1.08;;;;;;;;;;4996613;28;20061;-69
2023/09/23 14:01:23;;;;;;;1.95;1.08;;;;;;;;;;5010487;28;20050;-69
2023/09/23 14:04:11;;;;;;;1.23;1.05;;;;;;;;;;4999672;28;20101;-68
2023/09/23 14:06:56;;;;;;;2.33;1.05;;;;;;;;;;5010157;28;20366;-68
2023/09/23 14:09:42;;;;;;;1.70;0.90;;;;;;;;;;5009944;28;20080;-76
2023/09/23 14:12:27;;;;;;;3.00;1.10;;;;;;;;;;5010010;28;20545;-76
2023/09/23 14:15:12;;;;;;;4.60;1.50;;;;;;;;;;5008041;28;20041;-76
2023/09/23 14:17:57;;;;;;;1.63;1.08;;;;;;;;;;5010045;28;20029;-75
2023/09/23 14:20:43;;;;;;;4.93;1.65;;;;;;;;;;5007733;28;20022;-74
2023/09/23 14:23:29;;;;;;;2.33;1.17;;;;;;;;;;5007014;28;20037;-74
2023/09/23 14:26:14;;;;;;;4.18;1.27;;;;;;;;;;4992834;28;20041;-73
2023/09/23 14:28:59;;;;;;;2.83;1.30;;;;;;;;;;4996239;28;20121;-71
2023/09/23 14:31:45;;;;;;;2.17;1.00;;;;;;;;;;5009762;28;20026;-70
2023/09/23 14:34:31;;;;;;;2.95;1.15;;;;;;;;;;5009693;28;20045;-68
2023/09/23 14:37:16;;;;;;;2.45;1.30;;;;;;;;;;5009845;28;20030;-69
2023/09/23 14:40:02;;;;;;;3.20;1.40;;;;;;;;;;5009852;28;20048;-70
2023/09/23 14:42:47;;;;;;;2.80;1.23;;;;;;;;;;5009602;28;20062;-70
2023/09/23 14:45:33;;;;;;;1.40;1.08;;;;;;;;;;5009620;28;20025;-69
2023/09/23 14:48:18;;;;;;;2.15;1.40;;;;;;;;;;5007678;28;20118;-73
2023/09/23 14:51:03;;;;;;;2.17;1.27;;;;;;;;;;5008965;28;20168;-72
2023/09/23 14:53:49;;;;;;;1.48;1.17;;;;;;;;;;5008738;28;20036;-73
2023/09/23 14:56:34;;;;;;;3.10;1.77;;;;;;;;;;5009125;28;20040;-72
2023/09/23 14:59:19;;;;;;;3.92;1.52;;;;;;;;;;5009013;28;20397;-72
2023/09/23 15:02:06;;;;;;;2.95;1.23;;;;;;;;;;5008645;28;20061;-74
2023/09/23 15:04:51;;;;;;;4.00;1.40;;;;;;;;;;5008364;28;20049;-69
2023/09/23 15:07:36;;;;;;;1.80;1.42;;;;;;;;;;5009460;28;20029;-78
2023/09/23 15:10:22;;;;;;;4.22;1.73;;;;;;;;;;5009651;28;20048;-76
2023/09/23 15:13:07;;;;;;;3.00;1.90;;;;;;;;;;5009953;28;20121;-76
2023/09/23 15:15:57;;;;;;;2.33;1.23;;;;;;;;;;4996978;28;20493;-77
2023/09/23 15:18:42;;;;;;;2.05;1.00;;;;;;;;;;5009546;28;20085;-78
2023/09/23 15:21:27;;;;;;;3.00;1.52;;;;;;;;;;5009028;28;20480;-69
2023/09/23 15:24:14;;;;;;;2.92;1.10;;;;;;;;;;5008889;28;20171;-69
2023/09/23 15:26:59;;;;;;;1.63;1.10;;;;;;;;;;5008851;28;20065;-69
2023/09/23 15:29:47;;;;;;;2.63;1.05;;;;;;;;;;5008739;28;20145;-69
2023/09/23 15:32:33;;;;;;;1.80;0.80;;;;;;;;;;4995042;28;20107;-69
2023/09/23 15:35:18;;;;;;;2.45;1.17;;;;;;;;;;5008689;28;20151;-70
2023/09/23 15:38:04;;;;;;;1.90;1.10;;;;;;;;;;5008622;28;20037;-71
2023/09/23 15:40:49;;;;;;;1.98;1.25;;;;;;;;;;5008651;28;20469;-70
2023/09/23 15:43:34;;;;;;;2.00;1.33;;;;;;;;;;4982449;28;20508;-70
2023/09/23 15:46:20;;;;;;;2.28;1.23;;;;;;;;;;5010822;28;20037;-69
2023/09/23 15:49:05;;;;;;;3.17;1.50;;;;;;;;;;5008553;28;20034;-70
2023/09/23 15:51:50;;;;;;;3.42;1.77;;;;;;;;;;5008120;28;20042;-69
2023/09/23 15:54:35;;;;;;;3.65;1.95;;;;;;;;;;5016901;28;20386;-72
2023/09/23 15:57:20;;;;;;;19.55;14.25;;;;;;;;;;5008339;28;20045;-69
2023/09/23 16:00:06;;;;;;;13.90;7.60;;;;;;;;;;5008754;28;20034;-72
2023/09/23 16:02:52;;;;;;;5.35;2.03;;;;;;;;;;5008186;28;20412;-70
2023/09/23 16:05:37;;;;;;;3.70;1.90;;;;;;;;;;4994488;28;20109;-69
2023/09/23 16:08:22;;;;;;;1.75;1.20;;;;;;;;;;5008132;28;20144;-68
2023/09/23 16:11:08;;;;;;;4.07;1.80;;;;;;;;;;5008625;28;20041;-69
2023/09/23 16:13:53;;;;;;;5.70;1.73;;;;;;;;;;5008372;28;20041;-69
2023/09/23 16:16:38;;;;;;;4.72;2.70;;;;;;;;;;5009567;28;20049;-68
2023/09/23 16:19:23;;;;;;;3.10;1.50;;;;;;;;;;5012355;28;20385;-73
2023/09/23 16:22:10;;;;;;;4.40;1.85;;;;;;;;;;5009928;28;20074;-73
2023/09/23 16:24:55;;;;;;;2.15;1.50;;;;;;;;;;4992856;28;20143;-72
2023/09/23 16:27:42;;;;;;;2.80;1.52;;;;;;;;;;5008179;28;20037;-72
2023/09/23 16:30:27;;;;;;;4.82;1.88;;;;;;;;;;5010005;28;20034;-73
2023/09/23 16:33:12;;;;;;;4.57;1.27;;;;;;;;;;5012263;28;20038;-73
2023/09/23 16:35:57;;;;;;;4.20;1.60;;;;;;;;;;5011664;28;20041;-78